Latest Weather Observations for Scottsdale

IDT60801

Issued at 11:11 am EDT Friday 15 November 2019 (issued every 10 minutes, with the page automatically refreshed every 10 minutes)

About weather observations | Map of weather stations | Latest weather observations for TAS | Other Formats
Station Details ID: 091219 Name: SCOTTSDALE (WEST MINSTONE ROAD) Lat: -41.17 Lon: 147.49 Height: 197.5 m
Data from the previous 72 hours. | See also: Recent months at Scottsdale
Date/Time
EDT
Temp
°C
App
Temp
°C
Dew
Point
°C
Rel
Hum
%
Delta-T
°C
Wind Press
QNH
hPa
Press
MSL
hPa
Rain since
9am
mm
Dir  Spd
km/h
Gust
km/h
Spd
kts
Gust
kts
15/11:00am 14.4 7.6 2.9 46 5.2 WNW 28 41 15 22 1000.8 - 0.0
15/10:30am 14.0 7.1 2.6 46 5.1 W 28 50 15 27 1001.0 - 0.0
15/10:00am 13.7 5.6 3.5 50 4.6 WNW 35 54 19 29 1001.2 - 0.0
15/09:51am 13.8 7.4 5.4 57 4.0 W 28 48 15 26 1001.2 - 0.0
15/09:30am 13.1 8.0 5.8 61 3.5 W 22 37 12 20 1001.4 - 0.0
15/09:00am 12.2 6.8 6.3 67 2.8 W 24 43 13 23 1001.6 1001.6 0.0
15/08:30am 12.0 5.6 5.2 63 3.2 WNW 28 46 15 25 1001.5 - 0.0
15/08:00am 11.0 6.4 6.4 73 2.2 W 20 35 11 19 1001.7 - 0.0
15/07:30am 10.6 7.1 7.1 79 1.7 W 15 26 8 14 1001.6 - 0.0
15/07:00am 9.9 7.2 7.3 84 1.2 W 11 17 6 9 1001.6 - 0.0
15/06:30am 9.6 5.7 7.0 84 1.2 W 17 26 9 14 1001.4 - 0.0
15/06:00am 9.5 5.9 6.9 84 1.2 W 15 24 8 13 1001.1 1001.1 0.0
15/05:30am 9.8 5.4 7.2 84 1.2 W 20 32 11 17 1000.7 - 0.0
15/05:00am 10.0 5.6 7.4 84 1.3 W 20 32 11 17 1000.6 - 0.0
15/04:30am 10.1 5.0 7.5 84 1.3 WNW 24 39 13 21 1000.4 - 0.0
15/04:00am 10.1 5.7 7.5 84 1.3 WNW 20 35 11 19 1000.4 - 0.0
15/03:30am 10.4 4.9 7.5 82 1.4 W 26 43 14 23 1000.3 - 0.0
15/03:00am 10.5 5.4 7.6 82 1.4 W 24 39 13 21 1000.4 1000.4 0.0
15/02:30am 10.5 6.1 7.6 82 1.4 WNW 20 41 11 22 1000.7 - 0.0
15/02:00am 10.7 5.5 7.4 80 1.6 W 24 46 13 25 1001.2 - 0.0
15/01:30am 10.7 5.9 7.4 80 1.6 W 22 37 12 20 1001.2 - 0.0
15/01:00am 10.5 5.0 7.4 81 1.5 WNW 26 41 14 22 1001.3 - 0.0
15/12:30am 10.5 5.0 7.4 81 1.5 WNW 26 43 14 23 1001.7 - 0.0
15/12:09am 10.7 4.8 7.4 80 1.6 WNW 28 50 15 27 1001.9 - 0.0
15/12:00am 10.6 5.0 7.3 80 1.6 WNW 26 39 14 21 1002.0 1002.0 0.0
 
Date/Time
EDT
Temp
°C
App
Temp
°C
Dew
Point
°C
Rel
Hum
%
Delta-T
°C
Wind Press
QNH
hPa
Press
MSL
hPa
Rain since
9am
mm
Dir  Spd
km/h
Gust
km/h
Spd
kts
Gust
kts
14/11:30pm 10.7 5.1 7.2 79 1.7 WNW 26 37 14 20 1002.3 - 0.0
14/11:00pm 10.8 6.4 7.3 79 1.7 W 20 37 11 20 1002.8 - 0.0
14/10:30pm 10.8 5.9 7.1 78 1.8 WNW 22 39 12 21 1003.1 - 0.0
14/10:00pm 10.9 5.7 7.2 78 1.8 WNW 24 39 13 21 1003.4 - 0.0
14/09:30pm 10.8 5.9 7.1 78 1.8 W 22 41 12 22 1003.6 - 0.0
14/09:00pm 11.0 6.6 7.3 78 1.8 WNW 20 33 11 18 1003.6 1003.5 0.0
14/08:30pm 11.3 6.9 7.4 77 1.9 WNW 20 33 11 18 1003.6 - 0.0
14/08:00pm 11.6 7.5 7.7 77 1.9 WNW 19 32 10 17 1003.7 - 0.0
14/07:30pm 12.1 6.7 7.8 75 2.1 WNW 26 41 14 22 1003.5 - 0.0
14/07:00pm 12.4 6.2 7.7 73 2.3 WNW 30 52 16 28 1003.3 - 0.0
14/06:33pm 12.8 6.5 7.5 70 2.6 WNW 30 48 16 26 1002.9 - 0.0
14/06:30pm 12.9 6.3 7.6 70 2.6 WNW 32 48 17 26 1003.0 - 0.0
14/06:00pm 13.6 7.0 7.8 68 2.9 WNW 32 54 17 29 1003.0 1002.9 0.0
14/05:30pm 14.0 8.1 7.5 65 3.2 WNW 28 46 15 25 1003.1 - 0.0
14/05:00pm 14.8 8.0 7.6 62 3.6 WNW 33 52 18 28 1003.2 - 0.0
14/04:30pm 15.0 9.2 8.0 63 3.5 WNW 28 48 15 26 1003.1 - 0.0
14/04:03pm 15.0 8.7 7.5 61 3.8 WNW 30 52 16 28 1003.1 - 0.0
14/04:00pm 15.0 9.2 7.8 62 3.6 WNW 28 44 15 24 1003.1 - 0.0
14/03:30pm 15.7 9.5 7.7 59 4.0 WNW 30 50 16 27 1003.2 - 0.0
14/03:00pm 16.8 10.6 9.2 61 4.0 WNW 32 56 17 30 1003.2 1003.1 0.0
14/02:30pm 16.2 9.1 7.9 58 4.2 W 35 59 19 32 1003.3 - 0.0
14/02:00pm 14.6 7.6 8.3 66 3.2 WNW 35 57 19 31 1003.7 - 0.0
14/01:30pm 15.0 8.6 8.5 65 3.3 WNW 32 57 17 31 1003.4 - 0.0
14/01:12pm 15.5 8.5 8.5 63 3.6 WNW 35 67 19 36 1003.6 - 0.0
14/01:00pm 15.3 9.8 9.0 66 3.3 WNW 28 46 15 25 1003.3 - 0.0
14/12:30pm 14.9 8.5 8.6 66 3.2 WNW 32 52 17 28 1003.6 - 0.0
14/12:00pm 13.9 8.4 9.3 74 2.4 WNW 28 46 15 25 1004.3 1004.2 0.0
14/11:37am 14.1 8.3 9.3 73 2.5 WNW 30 48 16 26 1004.4 - 0.0
14/11:30am 14.2 8.9 9.8 75 2.3 WNW 28 43 15 23 1004.5 - 0.0
14/11:00am 13.8 9.2 9.5 75 2.2 WNW 24 41 13 22 1004.6 - 0.0
14/10:30am 13.9 9.3 9.5 75 2.3 WNW 24 41 13 22 1004.7 - 0.0
14/10:14am 13.6 8.1 9.1 74 2.3 WNW 28 46 15 25 1004.7 - 0.0
14/10:00am 13.9 8.0 8.9 72 2.6 WNW 30 46 16 25 1004.8 - 0.0
14/09:35am 13.3 7.3 8.8 74 2.3 W 30 52 16 28 1004.9 - 0.0
14/09:30am 13.8 7.9 9.0 73 2.5 W 30 44 16 24 1005.0 - 0.0
14/09:02am 12.8 6.3 8.9 77 2.0 W 33 52 18 28 1005.0 - 0.0
14/09:00am 12.7 5.8 8.8 77 2.0 W 35 52 19 28 1004.9 1004.9 1.0
14/08:30am 12.2 6.2 8.7 79 1.8 W 30 54 16 29 1004.9 - 1.0
14/08:00am 11.2 5.5 8.4 83 1.4 W 28 54 15 29 1004.9 - 1.0
14/07:51am 11.1 5.4 8.3 83 1.4 W 28 54 15 29 1005.0 - 1.0
14/07:30am 11.0 6.5 8.6 85 1.2 WNW 22 35 12 19 1004.9 - 1.0
14/07:00am 10.9 6.0 8.5 85 1.2 W 24 39 13 21 1005.0 - 1.0
14/06:30am 10.6 6.1 8.4 86 1.1 WNW 22 37 12 20 1005.2 - 1.0
14/06:00am 10.3 6.1 8.1 86 1.1 WNW 20 32 11 17 1005.3 1005.3 1.0
14/05:30am 10.1 5.8 7.9 86 1.1 W 20 37 11 20 1005.4 - 1.0
14/05:00am 9.9 5.6 7.7 86 1.1 W 20 32 11 17 1005.4 - 1.0
14/04:30am 9.1 6.0 7.1 87 0.9 WNW 13 20 7 11 1005.6 - 1.0
14/04:00am 8.6 5.6 6.1 84 1.2 NW 11 17 6 9 1006.1 - 1.0
14/03:30am 8.3 5.6 5.4 82 1.3 N 9 11 5 6 1006.3 - 1.0
14/03:00am 8.3 5.5 5.2 81 1.4 N 9 13 5 7 1006.6 1006.6 1.0
14/02:30am 8.4 4.6 4.0 74 1.9 N 13 17 7 9 1006.8 - 1.0
14/02:00am 8.2 4.7 3.7 73 2.0 NNW 11 17 6 9 1007.2 - 1.0
14/01:30am 7.8 4.6 3.3 73 1.9 N 9 17 5 9 1007.2 - 1.0
14/01:00am 8.3 5.4 2.8 68 2.3 NW 7 15 4 8 1006.9 - 1.0
14/12:30am 8.2 4.2 2.9 69 2.3 NNW 13 17 7 9 1007.0 - 1.0
14/12:00am 7.8 3.7 2.3 68 2.3 N 13 22 7 12 1007.0 1007.0 1.0
 
Date/Time
EDT
Temp
°C
App
Temp
°C
Dew
Point
°C
Rel
Hum
%
Delta-T
°C
Wind Press
QNH
hPa
Press
MSL
hPa
Rain since
9am
mm
Dir  Spd
km/h
Gust
km/h
Spd
kts
Gust
kts
13/11:30pm 8.3 4.9 2.1 65 2.6 ENE 9 15 5 8 1006.8 - 0.8
13/11:00pm 8.9 5.1 2.0 62 2.9 NNW 11 24 6 13 1006.5 - 0.8
13/10:30pm 9.8 4.3 1.9 58 3.4 W 20 30 11 16 1005.9 - 0.8
13/10:00pm 9.9 6.1 2.0 58 3.4 W 11 22 6 12 1006.0 - 0.8
13/09:30pm 10.3 5.4 2.2 57 3.5 W 17 33 9 18 1005.5 - 0.8
13/09:00pm 10.9 4.8 2.7 57 3.6 W 24 39 13 21 1004.8 1004.8 0.8
13/08:30pm 11.2 5.1 2.5 55 3.8 W 24 41 13 22 1004.4 - 0.8
13/08:00pm 11.7 6.5 2.7 54 4.0 W 19 43 10 23 1004.1 - 0.8
13/07:30pm 13.0 6.6 3.1 51 4.4 W 26 41 14 22 1003.4 - 0.8
13/07:00pm 14.2 6.3 0.8 40 5.8 W 32 59 17 32 1002.7 - 0.8
13/06:30pm 14.9 8.8 2.8 44 5.5 W 24 46 13 25 1002.5 - 0.8
13/06:00pm 15.5 10.4 3.3 44 5.6 W 19 37 10 20 1001.9 1001.9 0.8
13/05:30pm 15.6 8.0 2.7 42 5.9 W 32 54 17 29 1001.5 - 0.8
13/05:00pm 16.1 9.4 3.9 44 5.7 W 28 50 15 27 1001.0 - 0.8
13/04:30pm 16.3 8.2 3.4 42 6.0 W 35 70 19 38 1000.3 - 0.8
13/04:00pm 16.7 9.6 5.3 47 5.5 W 32 54 17 29 1000.0 - 0.8
13/03:30pm 16.9 9.7 7.5 54 4.8 W 35 57 19 31 999.6 - 0.8
13/03:12pm 16.4 9.7 7.3 55 4.6 W 32 67 17 36 999.2 - 0.8
13/03:09pm 16.2 10.4 7.9 58 4.2 W 28 46 15 25 999.4 - 0.8
13/03:00pm 15.5 11.0 11.5 77 2.2 W 26 43 14 23 999.7 999.6 0.8
13/02:30pm 12.3 7.8 10.2 87 1.1 W 24 50 13 27 999.9 - 0.8
13/02:00pm 11.6 7.3 9.3 86 1.2 WNW 22 39 12 21 1000.2 - 0.2
13/01:30pm 11.3 5.7 8.7 84 1.3 WNW 28 46 15 25 1000.4 - 0.0
13/01:00pm 10.6 5.3 8.4 86 1.1 WNW 26 48 14 26 1001.3 - 0.0
13/12:53pm 10.5 4.9 8.6 88 0.9 WNW 28 48 15 26 1001.3 - 0.0
13/12:30pm 10.4 4.9 7.6 83 1.4 WNW 26 41 14 22 1001.8 - 0.0
13/12:00pm 9.9 4.4 7.5 85 1.2 WNW 26 41 14 22 1002.3 1002.2 0.0
13/11:30am 9.4 4.9 6.8 84 1.2 WNW 20 32 11 17 1003.1 - 0.0
13/11:00am 9.2 4.1 5.9 80 1.5 WNW 22 41 12 22 1003.9 - 0.0
13/10:48am 9.6 3.2 5.4 75 1.9 WNW 28 48 15 26 1003.9 - 0.0
13/10:30am 10.5 4.8 4.9 68 2.6 WNW 24 37 13 20 1003.9 - 0.0
13/10:03am 11.2 4.4 4.9 65 2.9 W 30 48 16 26 1003.7 - 0.0
13/10:00am 11.0 4.1 4.5 64 3.0 W 30 46 16 25 1003.7 - 0.0
13/09:37am 10.2 3.5 3.7 64 2.9 W 28 50 15 27 1004.1 - 0.0
13/09:30am 10.4 3.8 4.1 65 2.8 W 28 41 15 22 1004.1 - 0.0
13/09:10am 9.9 3.1 3.2 63 2.9 W 28 46 15 25 1004.2 - 0.0
13/09:00am 10.0 5.9 4.2 67 2.6 W 15 28 8 15 1004.1 1004.0 0.0
13/08:30am 8.6 3.4 3.8 72 2.1 WNW 20 33 11 18 1004.5 - 0.0
13/08:00am 7.1 3.9 3.0 75 1.7 NW 9 19 5 10 1004.4 - 0.0
13/07:30am 7.0 3.0 2.9 75 1.7 NNW 13 19 7 10 1004.6 - 0.0
13/07:00am 5.7 2.0 2.2 78 1.4 NNW 11 17 6 9 1004.4 - 0.0
13/06:30am 5.2 1.4 1.9 79 1.3 NNW 11 19 6 10 1004.7 - 0.0
13/06:00am 3.9 0.0 1.1 82 1.1 NW 11 13 6 7 1004.1 1004.0 0.0
13/05:30am 3.6 -0.7 0.8 82 1.1 WNW 13 15 7 8 1004.1 - 0.0
13/05:00am 3.5 -0.1 0.6 81 1.1 NW 9 13 5 7 1003.9 - 0.0
13/04:30am 4.0 0.4 0.7 79 1.3 NNW 9 15 5 8 1003.9 - 0.0
13/04:00am 4.6 0.6 0.7 76 1.5 WNW 11 17 6 9 1003.9 - 0.0
13/03:30am 3.1 -0.2 0.0 80 1.2 NNE 7 9 4 5 1003.8 - 0.0
13/03:00am 4.2 -0.2 0.5 77 1.4 WNW 13 28 7 15 1003.6 1003.5 0.0
13/02:30am 4.6 1.5 1.3 79 1.3 NW 7 26 4 14 1003.8 - 0.0
13/02:00am 4.1 0.5 0.8 79 1.3 NW 9 13 5 7 1004.1 - 0.0
13/01:30am 4.1 0.1 0.6 78 1.4 NW 11 15 6 8 1004.1 - 0.0
13/01:00am 4.9 -0.2 0.9 75 1.6 WNW 17 24 9 13 1004.3 - 0.0
13/12:30am 5.1 -0.9 0.9 74 1.7 W 22 32 12 17 1004.2 - 0.0
13/12:00am 5.4 -0.2 1.0 73 1.8 W 20 33 11 18 1003.9 1003.8 0.0
 
Date/Time
EDT
Temp
°C
App
Temp
°C
Dew
Point
°C
Rel
Hum
%
Delta-T
°C
Wind Press
QNH
hPa
Press
MSL
hPa
Rain since
9am
mm
Dir  Spd
km/h
Gust
km/h
Spd
kts
Gust
kts
12/11:30pm 5.6 -0.1 0.6 70 2.0 W 20 26 11 14 1003.7 - 0.0
12/11:00pm 6.1 0.6 0.6 68 2.2 W 19 32 10 17 1003.6 - 0.0
12/10:30pm 6.4 1.3 0.5 66 2.3 W 17 30 9 16 1003.5 - 0.0
12/10:00pm 6.9 1.2 0.8 65 2.4 W 20 35 11 19 1003.3 - 0.0
12/09:30pm 7.1 1.5 1.2 66 2.4 W 20 33 11 18 1002.7 - 0.0
12/09:00pm 7.5 2.2 2.0 68 2.3 W 19 30 10 16 1002.3 1002.2 0.0
12/08:30pm 8.3 2.8 1.9 64 2.7 W 20 39 11 21 1001.7 - 0.0
12/08:00pm 8.3 2.9 2.5 67 2.5 W 20 28 11 15 1001.5 - 0.0
12/07:30pm 8.8 2.4 3.0 67 2.5 WNW 26 39 14 21 1001.0 - 0.0
12/07:00pm 10.5 4.0 0.0 48 4.3 W 24 37 13 20 1000.3 - 0.0
12/06:30pm 11.7 4.9 1.1 48 4.5 W 26 52 14 28 1000.0 - 0.0
12/06:00pm 11.1 3.7 1.6 52 4.1 W 30 52 16 28 999.7 999.6 0.0
12/05:52pm 12.4 5.7 3.6 55 4.0 W 28 46 15 25 999.5 - 0.0
12/05:30pm 12.3 6.2 2.7 52 4.2 WNW 24 39 13 21 999.2 - 0.0
12/05:00pm 13.0 6.3 1.7 46 4.9 WNW 26 43 14 23 999.1 - 0.0
12/04:30pm 12.7 5.8 2.6 50 4.5 WNW 28 48 15 26 998.8 - 0.0
12/04:00pm 13.6 6.0 3.1 49 4.7 WNW 32 54 17 29 998.9 - 0.0
12/03:30pm 13.9 6.5 4.2 52 4.5 WNW 32 54 17 29 998.9 - 0.0
12/03:01pm 13.9 7.2 3.4 49 4.8 WNW 28 52 15 28 998.9 - 0.0
12/03:00pm 14.0 7.7 3.5 49 4.8 WNW 26 43 14 23 998.9 998.8 0.0
12/02:30pm 14.5 7.0 3.6 48 5.0 W 32 54 17 29 998.8 - 0.0
12/02:00pm 13.5 6.8 3.6 51 4.5 WNW 28 46 15 25 998.9 - 0.0
12/01:31pm 13.8 6.3 1.1 42 5.5 WNW 30 48 16 26 998.8 - 0.0
12/01:30pm 14.3 6.9 1.6 42 5.6 WNW 30 43 16 23 998.7 - 0.0
12/01:00pm 13.9 7.1 3.1 48 4.9 W 28 46 15 25 998.9 - 0.0
12/12:30pm 13.2 6.4 3.0 50 4.6 W 28 48 15 26 999.0 - 0.0
12/12:19pm 14.0 6.8 3.2 48 4.9 W 30 52 16 28 998.9 - 0.0
12/12:00pm 13.9 7.5 3.4 49 4.8 WNW 26 39 14 21 998.9 998.8 0.0
12/11:30am 13.8 7.9 3.9 51 4.5 W 24 41 13 22 998.9 - 0.0

Other formats

Comma delimited format used in spreadsheet applications
http://www.bom.gov.au/fwo/IDT60801/IDT60801.94972.axf

JavaScript Object Notation format (JSON) in row-major order
http://www.bom.gov.au/fwo/IDT60801/IDT60801.94972.json

Data quality

Most of these data are generated automatically and are frequently updated. Quality checks on data are not normally performed. It is possible for incorrect values to appear. Refer to information at About Latest Weather Observations and please check the disclaimer before using these data.